Time;durP1;ratioP1;P1;durP2;ratioP2;P2;SDS_P1;SDS_P2;PMS_P1;PMS_P2;Temp;Humidity;BMP_temperature;BMP_pressure;BME280_temperature;BME280_humidity;BME280_pressure;Samples;Min_cycle;Max_cycle;Signal;HPM_P1;HPM_P2
2022/10/13 00:00:45;;;;;;;27.77;12.75;;;23.60;58.20;;;;;;5032733;28;20061;-67
2022/10/13 00:03:12;;;;;;;19.02;11.10;;;23.60;58.20;;;;;;5032991;28;20037;-68
2022/10/13 00:05:43;;;;;;;21.80;11.82;;;23.60;58.30;;;;;;4997484;28;20107;-67
2022/10/13 00:08:11;;;;;;;19.77;10.25;;;23.50;58.40;;;;;;5032205;28;20033;-67
2022/10/13 00:10:41;;;;;;;17.40;11.65;;;23.60;58.40;;;;;;5031871;28;20041;-67
2022/10/13 00:13:10;;;;;;;21.30;11.45;;;23.50;58.60;;;;;;5031205;28;20036;-67
2022/10/13 00:15:42;;;;;;;20.77;13.40;;;23.50;58.60;;;;;;5031676;28;20112;-67
2022/10/13 00:18:08;;;;;;;20.35;12.23;;;23.50;58.60;;;;;;5030223;28;20121;-67
2022/10/13 00:20:35;;;;;;;21.60;11.95;;;23.40;58.40;;;;;;5031569;28;20320;-68
2022/10/13 00:23:01;;;;;;;21.83;10.20;;;23.50;58.60;;;;;;5031285;28;20044;-65
2022/10/13 00:25:27;;;;;;;16.48;11.10;;;23.40;58.50;;;;;;5031639;28;20114;-67
2022/10/13 00:27:53;;;;;;;17.75;10.70;;;23.40;58.50;;;;;;5013536;28;20022;-68
2022/10/13 00:30:19;;;;;;;17.80;9.70;;;23.40;58.60;;;;;;5031418;28;20030;-68
2022/10/13 00:32:46;;;;;;;18.25;10.48;;;23.40;58.60;;;;;;5031210;28;20029;-67
2022/10/13 00:35:12;;;;;;;20.80;10.13;;;23.40;58.60;;;;;;5030096;28;20036;-67
2022/10/13 00:37:38;;;;;;;18.45;9.48;;;23.30;58.70;;;;;;5030948;28;20112;-67
2022/10/13 00:40:04;;;;;;;16.50;10.02;;;23.30;58.70;;;;;;5031169;28;20037;-67
2022/10/13 00:42:30;;;;;;;17.75;9.65;;;23.30;58.70;;;;;;5031278;28;20038;-67
2022/10/13 00:45:31;;;;;;;13.95;9.65;;;23.20;58.70;;;;;;5029903;28;20076;-68
2022/10/13 00:48:00;;;;;;;17.00;9.05;;;23.30;58.70;;;;;;4950366;29;20485;-66
2022/10/13 00:50:36;;;;;;;13.32;8.45;;;23.30;58.70;;;;;;4950507;29;20521;-67
2022/10/13 00:53:05;;;;;;;15.38;8.18;;;23.30;58.80;;;;;;4934405;29;20539;-67
2022/10/13 00:55:34;;;;;;;14.95;8.07;;;23.20;58.80;;;;;;4934331;29;20114;-68
2022/10/13 00:58:03;;;;;;;13.95;8.30;;;23.40;58.80;;;;;;4950900;29;20488;-68
2022/10/13 01:00:30;;;;;;;10.68;7.40;;;23.30;58.80;;;;;;4951074;29;20051;-67
2022/10/13 01:02:56;;;;;;;9.82;6.78;;;23.40;58.70;;;;;;4950988;29;20046;-67
2022/10/13 01:05:23;;;;;;;11.95;7.68;;;23.30;58.70;;;;;;4950227;28;20078;-67
2022/10/13 01:07:55;;;;;;;10.10;6.70;;;23.50;58.80;;;;;;4935068;29;20063;-67
2022/10/13 01:10:43;;;;;;;14.15;7.32;;;23.40;58.70;;;;;;4950885;29;20504;-67
2022/10/13 01:13:21;;;;;;;13.82;7.20;;;23.40;58.60;;;;;;4935070;29;20043;-68
2022/10/13 01:15:57;;;;;;;10.07;6.80;;;23.40;58.60;;;;;;4950988;29;20047;-67
2022/10/13 01:18:41;;;;;;;11.35;7.80;;;23.50;58.70;;;;;;4934470;29;20043;-67
2022/10/13 01:21:25;;;;;;;13.68;8.48;;;23.50;58.70;;;;;;4950866;29;20121;-68
2022/10/13 01:24:32;;;;;;;13.07;7.47;;;23.50;58.60;;;;;;4988957;28;20049;-66
2022/10/13 01:27:04;;;;;;;10.13;7.13;;;23.50;58.70;;;;;;5011484;28;20387;-66
2022/10/13 01:29:49;;;;;;;11.85;7.45;;;23.70;58.70;;;;;;5011360;28;20069;-67
2022/10/13 01:32:22;;;;;;;12.45;8.00;;;23.60;58.60;;;;;;5010959;28;20069;-67
2022/10/13 01:34:51;;;;;;;11.35;7.05;;;23.70;58.60;;;;;;5010781;28;20403;-67
2022/10/13 01:37:44;;;;;;;12.32;7.40;;;23.60;58.60;;;;;;5011163;28;20398;-67
2022/10/13 01:40:16;;;;;;;12.18;7.28;;;23.70;58.60;;;;;;5011136;28;20061;-67
2022/10/13 01:43:01;;;;;;;15.50;8.10;;;23.70;58.50;;;;;;5026725;28;20034;-67
2022/10/13 01:45:57;;;;;;;12.02;7.97;;;23.70;58.30;;;;;;5008861;28;20062;-68
2022/10/13 01:48:25;;;;;;;10.52;8.02;;;23.70;58.30;;;;;;5011525;28;20045;-66
2022/10/13 01:50:53;;;;;;;10.48;7.28;;;23.70;58.30;;;;;;5011254;28;20096;-67
2022/10/13 01:53:20;;;;;;;9.82;7.10;;;23.70;58.30;;;;;;5018453;28;20117;-67
2022/10/13 01:55:58;;;;;;;15.88;7.70;;;23.80;58.40;;;;;;5009689;28;20084;-67
2022/10/13 01:58:28;;;;;;;12.48;7.30;;;23.80;58.40;;;;;;5025941;28;20482;-67
2022/10/13 02:01:03;;;;;;;11.57;7.35;;;23.60;58.30;;;;;;5009891;28;20037;-67
2022/10/13 02:03:56;;;;;;;15.35;7.20;;;23.70;58.40;;;;;;5010901;28;20034;-67
2022/10/13 02:06:49;;;;;;;12.07;7.35;;;23.60;58.40;;;;;;4952203;28;20050;-67
2022/10/13 02:09:17;;;;;;;10.90;6.90;;;23.50;58.40;;;;;;4968309;28;20047;-67
2022/10/13 02:11:55;;;;;;;10.90;6.93;;;23.50;58.60;;;;;;4968688;28;20047;-66
2022/10/13 02:14:25;;;;;;;9.45;7.40;;;23.50;58.70;;;;;;4969681;28;20523;-67
2022/10/13 02:16:54;;;;;;;11.93;8.30;;;23.50;58.70;;;;;;4972391;28;20113;-67
2022/10/13 02:19:21;;;;;;;11.73;8.30;;;23.40;58.60;;;;;;4992287;28;20073;-68
2022/10/13 02:21:47;;;;;;;10.23;7.80;;;23.50;58.80;;;;;;4992873;28;20042;-67
2022/10/13 02:24:13;;;;;;;11.55;7.15;;;23.40;58.70;;;;;;4992495;28;20054;-67
2022/10/13 02:26:40;;;;;;;12.15;7.38;;;23.50;58.70;;;;;;4992817;28;20031;-67
2022/10/13 02:29:13;;;;;;;13.18;8.02;;;23.50;58.60;;;;;;4975522;28;20041;-66
2022/10/13 02:31:40;;;;;;;10.63;7.20;;;23.50;58.40;;;;;;4991908;28;20068;-67
2022/10/13 02:34:06;;;;;;;11.77;6.80;;;23.60;58.40;;;;;;4992308;28;20038;-67
2022/10/13 02:36:33;;;;;;;9.35;6.00;;;23.50;58.30;;;;;;4992612;28;20109;-67
2022/10/13 02:38:59;;;;;;;8.50;5.78;;;23.50;58.40;;;;;;4992369;28;20411;-67
2022/10/13 02:41:25;;;;;;;8.48;6.03;;;23.50;58.50;;;;;;4992356;28;20719;-67
2022/10/13 02:43:51;;;;;;;11.60;5.78;;;23.50;58.40;;;;;;5019748;28;20041;-67
2022/10/13 02:46:17;;;;;;;10.77;7.07;;;23.70;58.30;;;;;;4999263;28;20111;-67
2022/10/13 02:48:43;;;;;;;9.88;5.95;;;23.70;58.20;;;;;;5033213;28;20132;-68
2022/10/13 02:51:09;;;;;;;8.95;5.50;;;23.70;58.10;;;;;;5033337;28;20148;-67
2022/10/13 02:53:35;;;;;;;10.20;5.57;;;23.70;58.10;;;;;;5033970;28;20041;-67
2022/10/13 02:56:02;;;;;;;8.00;5.70;;;23.70;58.10;;;;;;5034244;28;20042;-67
2022/10/13 02:58:30;;;;;;;9.25;6.22;;;23.70;58.10;;;;;;5033925;28;20043;-67
2022/10/13 03:01:08;;;;;;;9.18;6.22;;;23.70;58.00;;;;;;5033622;28;20498;-67
2022/10/13 03:03:35;;;;;;;7.38;5.35;;;23.70;58.10;;;;;;5034238;28;20455;-67
2022/10/13 03:06:01;;;;;;;9.98;6.38;;;23.60;58.10;;;;;;5033886;28;20168;-68
2022/10/13 03:08:28;;;;;;;9.75;5.85;;;23.70;58.20;;;;;;5032842;28;20503;-67
2022/10/13 03:10:54;;;;;;;10.73;6.22;;;23.60;58.20;;;;;;5033620;28;20044;-67
2022/10/13 03:13:20;;;;;;;10.52;6.75;;;23.60;58.30;;;;;;5033778;28;20029;-67
2022/10/13 03:15:46;;;;;;;8.07;5.78;;;23.50;58.40;;;;;;5033819;28;20037;-68
2022/10/13 03:18:13;;;;;;;9.68;5.90;;;23.50;58.50;;;;;;5033751;28;20478;-68
2022/10/13 03:20:39;;;;;;;7.97;6.28;;;23.50;58.60;;;;;;5033439;28;20429;-67
2022/10/13 03:23:05;;;;;;;7.30;5.50;;;23.40;58.60;;;;;;5033498;28;20611;-67
2022/10/13 03:25:33;;;;;;;7.93;5.60;;;23.30;58.60;;;;;;5032373;28;20033;-67
2022/10/13 03:27:59;;;;;;;10.57;5.65;;;23.40;58.60;;;;;;5033433;28;20083;-67
2022/10/13 03:30:25;;;;;;;12.05;5.95;;;23.40;58.70;;;;;;5032863;28;20502;-67
2022/10/13 03:32:51;;;;;;;11.20;6.05;;;23.40;58.60;;;;;;5033416;28;20082;-65
2022/10/13 03:35:17;;;;;;;7.88;5.75;;;23.50;58.50;;;;;;5014053;28;20557;-67
2022/10/13 03:37:43;;;;;;;9.73;5.65;;;23.60;58.20;;;;;;5032547;28;20037;-67
2022/10/13 03:40:10;;;;;;;8.57;6.65;;;23.60;58.00;;;;;;5013460;28;20394;-67
2022/10/13 03:42:37;;;;;;;10.88;6.22;;;23.60;57.80;;;;;;5032336;28;20372;-67
2022/10/13 03:45:04;;;;;;;9.75;7.00;;;23.60;57.70;;;;;;5032651;28;20052;-67
2022/10/13 03:47:35;;;;;;;10.65;6.63;;;23.50;57.90;;;;;;5014867;28;20413;-67
2022/10/13 03:50:03;;;;;;;9.32;6.25;;;23.50;58.20;;;;;;5032375;28;20060;-67
2022/10/13 03:52:29;;;;;;;10.50;5.65;;;23.40;58.20;;;;;;5033007;28;20045;-67
2022/10/13 03:54:55;;;;;;;11.60;5.07;;;23.40;58.40;;;;;;5033037;28;20443;-67
2022/10/13 03:57:21;;;;;;;7.68;4.90;;;23.30;58.60;;;;;;5032910;28;20355;-67
2022/10/13 03:59:47;;;;;;;6.35;5.15;;;23.40;58.40;;;;;;5033056;28;20033;-69
2022/10/13 04:02:13;;;;;;;7.10;4.47;;;23.50;58.20;;;;;;5032943;28;20505;-68
2022/10/13 04:04:39;;;;;;;7.80;4.60;;;23.50;57.90;;;;;;5032598;28;20041;-69
2022/10/13 04:07:07;;;;;;;9.65;5.10;;;23.60;57.60;;;;;;5031942;28;20132;-69
2022/10/13 04:09:33;;;;;;;10.40;5.20;;;23.70;57.50;;;;;;5032351;28;20386;-70
2022/10/13 04:11:59;;;;;;;6.72;4.72;;;23.70;57.20;;;;;;5031744;28;20449;-67
2022/10/13 04:14:25;;;;;;;7.10;4.57;;;23.80;57.10;;;;;;5032522;28;20029;-67
2022/10/13 04:16:56;;;;;;;7.15;5.30;;;23.80;56.90;;;;;;5015286;28;20040;-68
2022/10/13 04:19:22;;;;;;;9.68;5.25;;;23.90;56.80;;;;;;5032536;28;20107;-68
2022/10/13 04:21:48;;;;;;;8.57;5.75;;;24.00;59.20;;;;;;5031171;28;20654;-69
2022/10/13 04:24:16;;;;;;;6.78;5.25;;;24.20;61.70;;;;;;5032342;28;20112;-68
2022/10/13 04:26:43;;;;;;;10.02;5.60;;;24.60;63.80;;;;;;5031154;28;20064;-68
2022/10/13 04:29:11;;;;;;;9.80;5.53;;;24.80;62.30;;;;;;5032222;28;20124;-69
2022/10/13 04:31:39;;;;;;;9.05;5.97;;;24.70;59.10;;;;;;5012931;28;20053;-68
2022/10/13 04:34:06;;;;;;;8.38;5.18;;;24.60;58.50;;;;;;5032332;28;20030;-69
2022/10/13 04:36:32;;;;;;;8.43;5.65;;;24.30;58.70;;;;;;5030896;28;20474;-70
2022/10/13 04:38:58;;;;;;;8.98;5.10;;;24.30;59.00;;;;;;5032178;28;20091;-68
2022/10/13 04:41:24;;;;;;;11.05;5.75;;;24.20;59.20;;;;;;5030808;28;20044;-69
2022/10/13 04:43:52;;;;;;;6.47;5.57;;;24.10;59.50;;;;;;5030468;28;20037;-69
2022/10/13 04:46:23;;;;;;;9.48;6.15;;;24.00;59.70;;;;;;5031224;28;20060;-67
2022/10/13 04:48:50;;;;;;;7.45;5.57;;;24.00;60.40;;;;;;5030769;28;20036;-69
2022/10/13 04:51:22;;;;;;;8.70;5.97;;;23.90;60.60;;;;;;5030696;28;20072;-68
2022/10/13 04:53:48;;;;;;;9.82;5.63;;;23.90;60.60;;;;;;5031404;28;20030;-70
2022/10/13 04:56:17;;;;;;;8.05;5.13;;;24.00;60.50;;;;;;5031180;28;20037;-69
2022/10/13 04:58:44;;;;;;;7.55;4.93;;;23.90;60.30;;;;;;5031723;28;20450;-69
2022/10/13 05:01:16;;;;;;;8.30;5.10;;;23.80;59.50;;;;;;5031918;28;20467;-69
2022/10/13 05:03:42;;;;;;;8.30;5.50;;;23.90;59.30;;;;;;5032148;28;20039;-70
2022/10/13 05:06:17;;;;;;;6.30;4.88;;;23.90;58.90;;;;;;5031666;28;20436;-69
2022/10/13 05:08:47;;;;;;;9.13;5.55;;;23.90;58.40;;;;;;5031621;28;20044;-68
2022/10/13 05:11:15;;;;;;;7.40;5.28;;;24.00;54.10;;;;;;5030661;28;20033;-69
2022/10/13 05:13:42;;;;;;;7.68;5.45;;;24.00;52.30;;;;;;5030227;28;20047;-68
2022/10/13 05:16:10;;;;;;;7.55;5.03;;;24.00;50.60;;;;;;5030973;28;20033;-68
2022/10/13 05:18:36;;;;;;;8.88;5.07;;;24.00;50.20;;;;;;5030724;28;20059;-68
2022/10/13 05:21:10;;;;;;;7.78;5.68;;;24.10;52.10;;;;;;5028545;28;21593;-68
2022/10/13 05:23:37;;;;;;;6.50;4.68;;;23.90;52.30;;;;;;5030407;28;20701;-65
2022/10/13 05:26:08;;;;;;;6.00;4.32;;;24.20;51.80;;;;;;5030680;28;20390;-65
2022/10/13 05:28:34;;;;;;;9.43;4.68;;;24.00;51.00;;;;;;5028697;28;20067;-66
2022/10/13 05:31:22;;;;;;;8.68;4.15;;;24.00;50.90;;;;;;5028748;28;20187;-67
2022/10/13 05:33:50;;;;;;;6.82;4.00;;;24.00;50.70;;;;;;5012603;28;20049;-67
2022/10/13 05:36:28;;;;;;;8.43;4.18;;;24.00;50.80;;;;;;5014481;28;20026;-66
2022/10/13 05:38:57;;;;;;;7.35;3.97;;;24.00;49.10;;;;;;5029888;28;20041;-66
2022/10/13 05:41:25;;;;;;;7.70;4.53;;;24.10;58.20;;;;;;5031085;28;20660;-67
2022/10/13 05:43:59;;;;;;;9.32;4.40;;;24.20;58.30;;;;;;5030527;28;20041;-67
2022/10/13 05:46:25;;;;;;;9.07;4.63;;;24.20;58.30;;;;;;5029989;28;20037;-67
2022/10/13 05:48:52;;;;;;;6.60;4.68;;;24.20;59.20;;;;;;5031201;28;20394;-68
2022/10/13 05:51:36;;;;;;;6.43;4.60;;;24.30;58.00;;;;;;5030565;28;20111;-68
2022/10/13 05:54:14;;;;;;;6.35;5.00;;;24.40;57.70;;;;;;5031217;28;20033;-68
2022/10/13 05:56:54;;;;;;;6.75;4.25;;;24.30;57.30;;;;;;5030918;28;20070;-68
2022/10/13 05:59:22;;;;;;;6.32;4.15;;;24.30;57.30;;;;;;4988649;28;20159;-68
2022/10/13 06:01:48;;;;;;;5.47;3.75;;;24.20;57.20;;;;;;4956407;28;20043;-69
2022/10/13 06:04:19;;;;;;;8.68;4.20;;;24.10;57.20;;;;;;4988961;28;20042;-68
2022/10/13 06:06:46;;;;;;;7.32;4.90;;;24.20;57.50;;;;;;4986814;28;20070;-69
2022/10/13 06:09:12;;;;;;;7.43;4.95;;;24.10;57.70;;;;;;4986354;28;20176;-70
2022/10/13 06:11:39;;;;;;;5.88;4.22;;;24.20;57.80;;;;;;4986045;28;20042;-67
2022/10/13 06:14:05;;;;;;;6.28;4.38;;;24.10;58.00;;;;;;4986099;28;20420;-68
2022/10/13 06:16:33;;;;;;;5.75;4.38;;;24.00;58.00;;;;;;4985534;28;20042;-67
2022/10/13 06:18:59;;;;;;;5.75;4.10;;;24.10;58.10;;;;;;4969572;28;20467;-69
2022/10/13 06:21:25;;;;;;;5.25;4.47;;;24.10;58.20;;;;;;4985452;28;20084;-68
2022/10/13 06:23:51;;;;;;;5.70;4.10;;;24.20;58.40;;;;;;4986402;28;20030;-69
2022/10/13 06:26:19;;;;;;;5.82;4.10;;;24.10;58.50;;;;;;4988775;28;20035;-68
2022/10/13 06:28:45;;;;;;;6.03;4.35;;;24.10;58.50;;;;;;4988599;28;20065;-69
2022/10/13 06:31:11;;;;;;;8.93;4.88;;;24.20;58.50;;;;;;5007308;28;20064;-68
2022/10/13 06:33:37;;;;;;;7.72;4.68;;;24.20;58.50;;;;;;5016773;28;20774;-71
2022/10/13 06:36:04;;;;;;;6.00;3.95;;;24.20;58.40;;;;;;5026251;28;20711;-67
2022/10/13 06:38:31;;;;;;;8.38;4.43;;;24.10;58.30;;;;;;4972809;28;20077;-69
2022/10/13 06:41:01;;;;;;;5.38;4.18;;;24.20;58.30;;;;;;5012253;28;20037;-67
2022/10/13 06:43:31;;;;;;;7.68;4.40;;;24.30;58.30;;;;;;5027133;28;20037;-69
2022/10/13 06:46:00;;;;;;;6.88;4.20;;;24.40;58.00;;;;;;5027759;28;20040;-67
2022/10/13 06:48:27;;;;;;;6.18;4.30;;;24.30;57.50;;;;;;5029723;28;20033;-67
2022/10/13 06:50:54;;;;;;;5.68;3.97;;;24.40;57.40;;;;;;5018160;28;20442;-67
2022/10/13 06:53:20;;;;;;;6.95;4.38;;;24.40;59.60;;;;;;5029297;28;20492;-69
2022/10/13 06:55:46;;;;;;;6.85;3.88;;;24.60;59.90;;;;;;5030547;28;20700;-64
2022/10/13 06:58:12;;;;;;;7.43;4.13;;;25.00;59.50;;;;;;5030120;28;20061;-68
2022/10/13 07:00:40;;;;;;;11.60;4.72;;;25.20;61.30;;;;;;5030441;28;20103;-69
2022/10/13 07:03:06;;;;;;;5.95;4.18;;;25.50;57.70;;;;;;5030500;28;20041;-66
2022/10/13 07:05:32;;;;;;;5.65;4.55;;;25.30;54.50;;;;;;5036268;28;20398;-67
2022/10/13 07:07:58;;;;;;;4.53;4.00;;;25.20;53.90;;;;;;5043190;28;20030;-67
2022/10/13 07:10:24;;;;;;;7.50;3.60;;;25.10;54.40;;;;;;5033778;28;20030;-67
2022/10/13 07:12:50;;;;;;;6.20;4.78;;;25.10;54.90;;;;;;5033768;28;20048;-67
2022/10/13 07:15:16;;;;;;;7.40;4.38;;;25.10;55.10;;;;;;5033782;28;20037;-65
2022/10/13 07:17:42;;;;;;;5.88;4.18;;;25.00;55.10;;;;;;5016074;28;20128;-68
2022/10/13 07:20:09;;;;;;;6.82;3.67;;;25.00;56.00;;;;;;5033232;28;20029;-66
2022/10/13 07:22:35;;;;;;;6.22;4.30;;;25.00;56.70;;;;;;5033320;28;20040;-65
2022/10/13 07:25:01;;;;;;;4.85;3.60;;;25.00;56.50;;;;;;5033843;28;20049;-65
2022/10/13 07:27:27;;;;;;;6.95;3.70;;;24.80;57.20;;;;;;5033795;28;20033;-65
2022/10/13 07:29:54;;;;;;;6.78;3.92;;;24.90;56.70;;;;;;5010351;28;20046;-65
2022/10/13 07:32:20;;;;;;;4.63;3.17;;;24.80;56.50;;;;;;5010354;28;20502;-64
2022/10/13 07:34:46;;;;;;;8.05;4.03;;;24.80;56.50;;;;;;5010180;28;20045;-66
2022/10/13 07:37:12;;;;;;;6.47;3.58;;;24.80;56.40;;;;;;5010161;28;20061;-65
2022/10/13 07:39:38;;;;;;;5.78;3.55;;;24.70;56.20;;;;;;5009418;28;20127;-67
2022/10/13 07:42:04;;;;;;;5.10;3.42;;;24.70;56.30;;;;;;5009856;28;20038;-67
2022/10/13 07:44:30;;;;;;;7.80;3.67;;;24.80;56.00;;;;;;5009984;28;20050;-66
2022/10/13 07:46:56;;;;;;;4.28;3.20;;;24.70;56.20;;;;;;5010011;28;20040;-65
2022/10/13 07:49:22;;;;;;;5.93;4.35;;;24.70;56.20;;;;;;5009835;28;20046;-65
2022/10/13 07:51:48;;;;;;;7.38;4.57;;;24.60;56.40;;;;;;4993733;28;20034;-66
2022/10/13 07:54:18;;;;;;;6.47;4.80;;;24.60;56.50;;;;;;4993565;28;20049;-67
2022/10/13 07:56:44;;;;;;;8.27;4.68;;;24.70;56.60;;;;;;4993289;28;20124;-64
2022/10/13 07:59:11;;;;;;;7.35;3.95;;;24.60;56.50;;;;;;5009619;28;20066;-63
2022/10/13 08:01:37;;;;;;;7.32;5.45;;;24.70;56.60;;;;;;5028291;28;20111;-66
2022/10/13 08:04:03;;;;;;;7.90;4.57;;;24.60;56.90;;;;;;5032655;28;20041;-65
2022/10/13 08:06:29;;;;;;;6.43;4.80;;;24.60;56.90;;;;;;5032792;28;20406;-66
2022/10/13 08:08:59;;;;;;;6.45;4.53;;;24.60;56.80;;;;;;5032596;28;20080;-66
2022/10/13 08:11:25;;;;;;;3.92;3.50;;;24.50;56.70;;;;;;5013916;28;20421;-66
2022/10/13 08:13:52;;;;;;;7.15;4.20;;;24.70;56.70;;;;;;5032824;28;20032;-66
2022/10/13 08:16:22;;;;;;;8.65;4.13;;;24.50;56.70;;;;;;5032561;28;20033;-65
2022/10/13 08:18:48;;;;;;;6.78;4.45;;;24.60;56.90;;;;;;5032245;28;20083;-65
2022/10/13 08:21:16;;;;;;;8.00;5.13;;;24.70;56.90;;;;;;5013629;28;20478;-64
2022/10/13 08:23:43;;;;;;;9.15;5.60;;;24.60;56.90;;;;;;5032978;28;20088;-65
2022/10/13 08:26:18;;;;;;;11.32;6.88;;;24.70;57.50;;;;;;5032259;28;20581;-64
2022/10/13 08:28:44;;;;;;;10.20;7.45;;;24.50;57.10;;;;;;5031814;28;20108;-65
2022/10/13 08:31:11;;;;;;;13.52;7.55;;;24.50;56.40;;;;;;5031218;28;20483;-64
2022/10/13 08:33:37;;;;;;;10.50;6.47;;;24.40;57.40;;;;;;5031605;28;20051;-64
2022/10/13 08:36:05;;;;;;;10.05;6.57;;;24.40;56.60;;;;;;5030489;28;20033;-66
2022/10/13 08:38:31;;;;;;;7.53;5.57;;;24.40;57.30;;;;;;5031407;28;20021;-66
2022/10/13 08:40:57;;;;;;;8.68;6.13;;;24.30;57.10;;;;;;5031433;28;20566;-64
2022/10/13 08:43:24;;;;;;;8.30;5.63;;;24.40;61.10;;;;;;5012874;28;20045;-63
2022/10/13 08:45:56;;;;;;;7.75;5.72;;;24.70;61.00;;;;;;5028081;28;20045;-63
2022/10/13 08:48:31;;;;;;;10.73;5.55;;;25.00;60.10;;;;;;5028771;28;20037;-65
2022/10/13 08:51:02;;;;;;;9.77;6.30;;;25.20;58.40;;;;;;5031737;28;20026;-64
2022/10/13 08:53:30;;;;;;;9.02;6.47;;;25.30;56.40;;;;;;5030964;28;20079;-63
2022/10/13 08:56:02;;;;;;;11.38;6.60;;;25.20;55.80;;;;;;5032759;28;20046;-66
2022/10/13 08:58:30;;;;;;;;;;;25.20;56.20;;;;;;5032955;28;20109;-66
2022/10/13 09:00:59;;;;;;;5.88;4.75;;;25.10;57.80;;;;;;5042200;28;20271;-67
2022/10/13 09:03:28;;;;;;;7.10;4.65;;;25.00;58.00;;;;;;5012605;28;20115;-66
2022/10/13 09:06:28;;;;;;;6.22;5.22;;;24.90;58.00;;;;;;5013090;28;20204;-66
2022/10/13 09:08:56;;;;;;;5.95;5.18;;;25.00;58.00;;;;;;5011869;28;20088;-66
2022/10/13 09:11:24;;;;;;;7.20;4.85;;;24.90;57.90;;;;;;5012833;28;20041;-66
2022/10/13 09:13:54;;;;;;;8.40;4.88;;;24.90;58.00;;;;;;5012925;28;20057;-65
2022/10/13 09:16:37;;;;;;;7.38;5.57;;;24.70;57.80;;;;;;5012468;28;20505;-65
2022/10/13 09:19:27;;;;;;;8.00;5.90;;;24.70;57.90;;;;;;5011214;28;20049;-66
2022/10/13 09:21:56;;;;;;;7.60;4.78;;;24.80;57.70;;;;;;5012213;28;20042;-66
2022/10/13 09:24:25;;;;;;;11.43;5.63;;;24.70;57.80;;;;;;5012326;28;20033;-66
2022/10/13 09:27:15;;;;;;;10.07;4.97;;;24.80;57.80;;;;;;5011123;28;20038;-65
2022/10/13 09:29:43;;;;;;;7.80;6.20;;;24.80;58.00;;;;;;5012256;28;20466;-67
2022/10/13 09:32:11;;;;;;;9.55;5.53;;;24.80;57.70;;;;;;5012085;28;20058;-66
2022/10/13 09:34:37;;;;;;;7.30;4.88;;;24.70;57.80;;;;;;5023847;28;20474;-67
2022/10/13 09:37:15;;;;;;;6.20;4.88;;;24.70;57.80;;;;;;5030979;28;20045;-66
2022/10/13 09:39:41;;;;;;;9.40;5.25;;;24.60;57.60;;;;;;5031653;28;20052;-68
2022/10/13 09:42:19;;;;;;;7.60;4.93;;;24.70;57.50;;;;;;5030402;28;20046;-66
2022/10/13 09:44:46;;;;;;;8.60;4.43;;;24.80;57.50;;;;;;5031199;28;20045;-67
2022/10/13 09:47:20;;;;;;;7.30;4.20;;;24.80;60.50;;;;;;5031681;28;20390;-66
2022/10/13 09:50:03;;;;;;;7.55;4.07;;;25.60;61.30;;;;;;5031520;28;20095;-66
2022/10/13 09:52:29;;;;;;;6.60;4.70;;;26.10;63.30;;;;;;5032216;28;20041;-63
2022/10/13 09:54:58;;;;;;;9.20;5.28;;;26.30;49.40;;;;;;5031812;28;20060;-64
2022/10/13 09:57:42;;;;;;;8.38;5.68;;;26.10;49.90;;;;;;5031553;28;20041;-65
2022/10/13 10:00:22;;;;;;;13.93;8.07;;;26.00;56.20;;;;;;5029216;28;20037;-64
2022/10/13 10:02:59;;;;;;;10.95;5.40;;;25.80;55.60;;;;;;5031365;28;20037;-65
2022/10/13 10:05:33;;;;;;;6.50;5.35;;;25.60;55.60;;;;;;5032773;28;20045;-65
2022/10/13 10:08:11;;;;;;;10.45;6.20;;;26.20;63.20;;;;;;5050989;28;20091;-63
2022/10/13 10:10:39;;;;;;;9.60;5.35;;;27.10;53.80;;;;;;5032137;28;20433;-64
2022/10/13 10:13:11;;;;;;;6.68;4.72;;;27.00;52.20;;;;;;5048733;28;20037;-62
2022/10/13 10:15:57;;;;;;;7.78;5.35;;;26.70;53.10;;;;;;5030961;28;20040;-62
2022/10/13 10:18:33;;;;;;;8.38;5.22;;;26.60;55.90;;;;;;5031083;28;20052;-64
2022/10/13 10:21:26;;;;;;;7.00;4.95;;;26.40;55.40;;;;;;5031163;28;20383;-61
2022/10/13 10:24:16;;;;;;;10.27;5.18;;;26.20;55.20;;;;;;4969742;28;20346;-65
2022/10/13 10:26:56;;;;;;;7.18;5.13;;;26.10;54.90;;;;;;4969663;28;20097;-64
2022/10/13 10:29:47;;;;;;;7.57;4.97;;;26.10;54.90;;;;;;4969477;28;20047;-64
2022/10/13 10:32:48;;;;;;;8.32;5.55;;;26.00;55.10;;;;;;4968365;28;20135;-63
2022/10/13 10:35:28;;;;;;;7.50;4.50;;;25.90;55.00;;;;;;4931040;29;20052;-65
2022/10/13 10:38:21;;;;;;;7.25;3.97;;;25.80;51.60;;;;;;4930651;29;20484;-65
2022/10/13 10:41:03;;;;;;;10.65;3.47;;;25.80;48.90;;;;;;4918678;29;20062;-64
2022/10/13 10:43:44;;;;;;;5.13;3.70;;;25.70;49.10;;;;;;4934587;29;20067;-65
2022/10/13 10:46:22;;;;;;;7.88;4.30;;;25.80;51.10;;;;;;4934424;29;20048;-65
2022/10/13 10:48:53;;;;;;;6.78;4.07;;;25.60;53.40;;;;;;4934554;29;20044;-64
2022/10/13 10:51:21;;;;;;;5.72;4.15;;;25.70;53.30;;;;;;4934519;29;20040;-65
2022/10/13 10:54:06;;;;;;;7.38;4.15;;;25.60;55.00;;;;;;4934397;29;20082;-64
2022/10/13 10:56:39;;;;;;;6.95;4.03;;;25.60;54.20;;;;;;4934283;29;20119;-65
2022/10/13 10:59:29;;;;;;;7.47;4.40;;;25.70;53.70;;;;;;4934237;29;20180;-66
2022/10/13 11:02:15;;;;;;;9.45;5.47;;;25.70;51.00;;;;;;4971453;28;20042;-66
2022/10/13 11:04:44;;;;;;;8.15;4.22;;;25.60;55.00;;;;;;4992034;28;20054;-67
2022/10/13 11:07:12;;;;;;;6.03;4.75;;;25.70;54.80;;;;;;4975979;28;20055;-67
2022/10/13 11:09:41;;;;;;;9.35;4.85;;;25.50;54.90;;;;;;4972532;28;20034;-67
2022/10/13 11:12:19;;;;;;;5.18;4.28;;;25.60;55.00;;;;;;5002969;28;20037;-65
2022/10/13 11:15:08;;;;;;;7.30;5.18;;;25.50;55.00;;;;;;4979146;28;20066;-65
2022/10/13 11:17:37;;;;;;;5.20;4.20;;;25.40;55.00;;;;;;5013888;28;20168;-66
2022/10/13 11:20:21;;;;;;;5.65;4.85;;;25.60;55.00;;;;;;5014006;28;20033;-66
2022/10/13 11:22:59;;;;;;;7.15;4.78;;;25.40;55.20;;;;;;4996241;28;20088;-63
2022/10/13 11:25:45;;;;;;;8.55;5.75;;;25.40;55.10;;;;;;5014033;28;20117;-65
2022/10/13 11:28:20;;;;;;;8.50;5.32;;;25.30;55.30;;;;;;5013795;28;20123;-65
2022/10/13 11:30:50;;;;;;;9.20;5.63;;;25.30;55.20;;;;;;5012976;28;20376;-66
2022/10/13 11:33:52;;;;;;;8.57;5.15;;;25.30;55.20;;;;;;4978765;28;20042;-66
2022/10/13 11:36:40;;;;;;;6.93;4.93;;;25.30;55.50;;;;;;4995904;28;20065;-66
2022/10/13 11:39:26;;;;;;;8.48;4.78;;;25.30;55.40;;;;;;5013166;28;20041;-65
2022/10/13 11:42:01;;;;;;;8.57;5.35;;;25.20;55.60;;;;;;4995958;28;20046;-65
2022/10/13 11:44:37;;;;;;;6.18;4.55;;;25.10;55.70;;;;;;5013111;28;20034;-65
2022/10/13 11:47:28;;;;;;;9.27;5.20;;;25.20;56.40;;;;;;4994919;28;20376;-64
2022/10/13 11:50:31;;;;;;;7.25;5.00;;;25.00;57.00;;;;;;5012769;28;20052;-66
2022/10/13 11:53:17;;;;;;;8.43;4.82;;;25.10;57.00;;;;;;5013165;28;20033;-66
2022/10/13 11:55:54;;;;;;;7.28;4.85;;;25.00;56.20;;;;;;4995117;28;20433;-68
2022/10/13 11:58:23;;;;;;;9.93;5.15;;;25.00;54.20;;;;;;5012822;28;20172;-67
2022/10/13 12:00:49;;;;;;;7.50;4.95;;;24.90;56.60;;;;;;5013042;28;20140;-68
2022/10/13 12:03:22;;;;;;;9.52;5.15;;;24.90;56.80;;;;;;5014485;28;20034;-67
2022/10/13 12:05:50;;;;;;;7.85;4.50;;;24.90;56.90;;;;;;4985248;28;20089;-66
2022/10/13 12:08:19;;;;;;;8.95;4.57;;;25.00;57.00;;;;;;5032653;28;20045;-66
2022/10/13 12:10:45;;;;;;;6.32;4.70;;;24.90;57.10;;;;;;5031406;28;20116;-65
2022/10/13 12:13:21;;;;;;;5.80;4.18;;;24.90;57.10;;;;;;5032526;28;20475;-67
2022/10/13 12:15:48;;;;;;;6.78;4.25;;;25.00;57.20;;;;;;5033217;28;20036;-66
2022/10/13 12:18:37;;;;;;;7.97;4.80;;;24.90;57.40;;;;;;5032460;28;20029;-66
2022/10/13 12:21:10;;;;;;;5.32;4.22;;;24.90;58.50;;;;;;5032932;28;20076;-68
2022/10/13 12:23:36;;;;;;;6.43;3.78;;;25.20;56.20;;;;;;5032759;28;20045;-67
2022/10/13 12:26:03;;;;;;;5.22;3.33;;;25.50;55.60;;;;;;5032407;28;20784;-68
2022/10/13 12:28:59;;;;;;;3.95;3.35;;;25.60;56.80;;;;;;5032071;28;20364;-69
2022/10/13 12:31:28;;;;;;;5.20;3.78;;;25.90;50.30;;;;;;5012639;28;20357;-69
2022/10/13 12:34:00;;;;;;;6.07;3.47;;;25.80;51.00;;;;;;5011464;28;20042;-68
2022/10/13 12:36:29;;;;;;;14.27;7.47;;;25.90;52.10;;;;;;5012777;28;20038;-68
2022/10/13 12:39:00;;;;;;;8.00;4.75;;;25.80;52.60;;;;;;5011523;28;20042;-67
2022/10/13 12:41:33;;;;;;;6.43;4.65;;;26.00;55.50;;;;;;5017386;28;20084;-68
2022/10/13 12:44:00;;;;;;;8.55;4.28;;;26.10;53.10;;;;;;5032198;28;20116;-67
2022/10/13 12:46:44;;;;;;;10.30;4.65;;;26.30;51.00;;;;;;5032475;28;20034;-66
2022/10/13 12:49:28;;;;;;;7.25;4.65;;;26.30;58.50;;;;;;5032882;28;20038;-67
2022/10/13 12:52:05;;;;;;;10.63;4.50;;;26.30;48.80;;;;;;5032370;28;20034;-69
2022/10/13 12:54:36;;;;;;;8.73;4.85;;;26.30;54.60;;;;;;4996759;28;20481;-66
2022/10/13 12:57:17;;;;;;;8.50;5.22;;;26.20;49.60;;;;;;5030658;28;20029;-67
2022/10/13 12:59:43;;;;;;;9.55;4.95;;;26.10;48.60;;;;;;5032314;28;20608;-66
2022/10/13 13:02:25;;;;;;;10.18;5.07;;;26.10;50.80;;;;;;5031247;28;20045;-66
2022/10/13 13:04:52;;;;;;;11.02;4.97;;;26.10;51.80;;;;;;5031693;28;20429;-67